sensor_id;sensor_type;location;lat;lon;timestamp;temperature;humidity
28177;DHT22;15461;41.652;9.378;2022-10-12T00:01:45;16.30;99.90
28177;DHT22;15461;41.652;9.378;2022-10-12T00:04:10;16.30;99.90
28177;DHT22;15461;41.652;9.378;2022-10-12T00:06:36;16.30;99.90
28177;DHT22;15461;41.652;9.378;2022-10-12T00:09:02;16.30;99.90
28177;DHT22;15461;41.652;9.378;2022-10-12T00:11:29;16.30;99.90
28177;DHT22;15461;41.652;9.378;2022-10-12T00:13:55;16.30;99.90
28177;DHT22;15461;41.652;9.378;2022-10-12T00:16:23;16.20;99.90
28177;DHT22;15461;41.652;9.378;2022-10-12T00:18:54;16.20;99.90
28177;DHT22;15461;41.652;9.378;2022-10-12T00:21:20;16.20;99.90
28177;DHT22;15461;41.652;9.378;2022-10-12T00:23:47;16.20;99.90
28177;DHT22;15461;41.652;9.378;2022-10-12T00:26:18;16.20;99.90
28177;DHT22;15461;41.652;9.378;2022-10-12T00:28:45;16.20;99.90
28177;DHT22;15461;41.652;9.378;2022-10-12T00:31:14;16.20;99.90
28177;DHT22;15461;41.652;9.378;2022-10-12T00:33:40;16.20;99.90
28177;DHT22;15461;41.652;9.378;2022-10-12T00:38:38;16.20;99.90
28177;DHT22;15461;41.652;9.378;2022-10-12T00:41:04;16.20;99.90
28177;DHT22;15461;41.652;9.378;2022-10-12T00:43:32;16.30;99.90
28177;DHT22;15461;41.652;9.378;2022-10-12T00:46:00;16.20;99.90
28177;DHT22;15461;41.652;9.378;2022-10-12T00:48:27;16.30;99.90
28177;DHT22;15461;41.652;9.378;2022-10-12T00:50:53;16.30;99.90
28177;DHT22;15461;41.652;9.378;2022-10-12T00:53:23;16.30;99.90
28177;DHT22;15461;41.652;9.378;2022-10-12T00:55:56;16.30;99.90
28177;DHT22;15461;41.652;9.378;2022-10-12T00:58:24;16.30;99.90
28177;DHT22;15461;41.652;9.378;2022-10-12T01:00:50;16.30;99.90
28177;DHT22;15461;41.652;9.378;2022-10-12T01:03:19;16.30;99.90
28177;DHT22;15461;41.652;9.378;2022-10-12T01:05:46;16.30;99.90
28177;DHT22;15461;41.652;9.378;2022-10-12T01:08:12;16.30;99.90
28177;DHT22;15461;41.652;9.378;2022-10-12T01:10:38;16.30;99.90
28177;DHT22;15461;41.652;9.378;2022-10-12T01:13:04;16.30;99.90
28177;DHT22;15461;41.652;9.378;2022-10-12T01:15:41;16.30;99.90
28177;DHT22;15461;41.652;9.378;2022-10-12T01:18:23;16.30;99.90
28177;DHT22;15461;41.652;9.378;2022-10-12T01:21:16;16.20;99.90
28177;DHT22;15461;41.652;9.378;2022-10-12T01:37:18;16.20;99.90
28177;DHT22;15461;41.652;9.378;2022-10-12T01:39:55;16.20;99.90
28177;DHT22;15461;41.652;9.378;2022-10-12T01:42:30;16.10;99.90
28177;DHT22;15461;41.652;9.378;2022-10-12T01:45:04;16.10;99.90
28177;DHT22;15461;41.652;9.378;2022-10-12T01:47:32;16.10;99.90
28177;DHT22;15461;41.652;9.378;2022-10-12T01:49:59;16.10;99.90
28177;DHT22;15461;41.652;9.378;2022-10-12T01:52:32;16.10;99.90
28177;DHT22;15461;41.652;9.378;2022-10-12T01:55:02;16.10;99.90
28177;DHT22;15461;41.652;9.378;2022-10-12T01:57:51;16.00;99.90
28177;DHT22;15461;41.652;9.378;2022-10-12T02:00:17;16.00;99.90
28177;DHT22;15461;41.652;9.378;2022-10-12T02:03:09;16.00;99.90
28177;DHT22;15461;41.652;9.378;2022-10-12T02:08:18;16.00;99.90
28177;DHT22;15461;41.652;9.378;2022-10-12T02:11:03;16.00;99.90
28177;DHT22;15461;41.652;9.378;2022-10-12T02:13:31;16.00;99.90
28177;DHT22;15461;41.652;9.378;2022-10-12T02:16:01;16.00;99.90
28177;DHT22;15461;41.652;9.378;2022-10-12T02:18:28;16.00;99.90
28177;DHT22;15461;41.652;9.378;2022-10-12T02:20:58;16.00;99.90
28177;DHT22;15461;41.652;9.378;2022-10-12T02:23:27;15.90;99.90
28177;DHT22;15461;41.652;9.378;2022-10-12T02:25:55;16.00;99.90
28177;DHT22;15461;41.652;9.378;2022-10-12T02:28:23;15.90;99.90
28177;DHT22;15461;41.652;9.378;2022-10-12T02:31:14;15.90;99.90
28177;DHT22;15461;41.652;9.378;2022-10-12T02:34:15;16.00;99.90
28177;DHT22;15461;41.652;9.378;2022-10-12T02:36:50;15.90;99.90
28177;DHT22;15461;41.652;9.378;2022-10-12T02:39:27;16.00;99.90
28177;DHT22;15461;41.652;9.378;2022-10-12T02:41:58;16.00;99.90
28177;DHT22;15461;41.652;9.378;2022-10-12T02:44:31;16.00;99.90
28177;DHT22;15461;41.652;9.378;2022-10-12T02:46:58;16.00;99.90
28177;DHT22;15461;41.652;9.378;2022-10-12T02:49:26;16.00;99.90
28177;DHT22;15461;41.652;9.378;2022-10-12T02:51:53;16.00;99.90
28177;DHT22;15461;41.652;9.378;2022-10-12T02:54:20;16.00;99.90
28177;DHT22;15461;41.652;9.378;2022-10-12T02:56:46;15.90;99.90
28177;DHT22;15461;41.652;9.378;2022-10-12T02:59:13;15.90;99.90
28177;DHT22;15461;41.652;9.378;2022-10-12T03:01:39;15.90;99.90
28177;DHT22;15461;41.652;9.378;2022-10-12T03:04:05;15.90;99.90
28177;DHT22;15461;41.652;9.378;2022-10-12T03:06:31;15.90;99.90
28177;DHT22;15461;41.652;9.378;2022-10-12T03:08:57;15.90;99.90
28177;DHT22;15461;41.652;9.378;2022-10-12T03:11:23;15.80;99.90
28177;DHT22;15461;41.652;9.378;2022-10-12T03:13:54;15.80;99.90
28177;DHT22;15461;41.652;9.378;2022-10-12T03:16:20;15.80;99.90
28177;DHT22;15461;41.652;9.378;2022-10-12T03:18:46;15.80;99.90
28177;DHT22;15461;41.652;9.378;2022-10-12T03:21:13;15.80;99.90
28177;DHT22;15461;41.652;9.378;2022-10-12T03:23:39;15.80;99.90
28177;DHT22;15461;41.652;9.378;2022-10-12T03:26:05;15.80;99.90
28177;DHT22;15461;41.652;9.378;2022-10-12T03:28:31;15.80;99.90
28177;DHT22;15461;41.652;9.378;2022-10-12T03:30:58;15.80;99.90
28177;DHT22;15461;41.652;9.378;2022-10-12T03:33:24;15.80;99.90
28177;DHT22;15461;41.652;9.378;2022-10-12T03:35:50;15.80;99.90
28177;DHT22;15461;41.652;9.378;2022-10-12T03:38:18;15.70;99.90
28177;DHT22;15461;41.652;9.378;2022-10-12T03:40:45;15.70;99.90
28177;DHT22;15461;41.652;9.378;2022-10-12T03:43:11;15.80;99.90
28177;DHT22;15461;41.652;9.378;2022-10-12T03:45:38;15.70;99.90
28177;DHT22;15461;41.652;9.378;2022-10-12T03:48:04;15.70;99.90
28177;DHT22;15461;41.652;9.378;2022-10-12T03:50:32;15.70;99.90
28177;DHT22;15461;41.652;9.378;2022-10-12T03:53:00;15.80;99.90
28177;DHT22;15461;41.652;9.378;2022-10-12T03:55:26;15.70;99.90
28177;DHT22;15461;41.652;9.378;2022-10-12T03:57:52;15.70;99.90
28177;DHT22;15461;41.652;9.378;2022-10-12T04:00:18;15.70;99.90
28177;DHT22;15461;41.652;9.378;2022-10-12T04:02:43;15.70;99.90
28177;DHT22;15461;41.652;9.378;2022-10-12T04:05:09;15.60;99.90
28177;DHT22;15461;41.652;9.378;2022-10-12T04:07:35;15.60;99.90
28177;DHT22;15461;41.652;9.378;2022-10-12T04:10:01;15.60;99.90
28177;DHT22;15461;41.652;9.378;2022-10-12T04:12:28;15.70;99.90
28177;DHT22;15461;41.652;9.378;2022-10-12T04:14:54;15.60;99.90
28177;DHT22;15461;41.652;9.378;2022-10-12T04:17:20;15.60;99.90
28177;DHT22;15461;41.652;9.378;2022-10-12T04:19:45;15.60;99.90
28177;DHT22;15461;41.652;9.378;2022-10-12T04:22:11;15.60;99.90
28177;DHT22;15461;41.652;9.378;2022-10-12T04:24:37;15.60;99.90
28177;DHT22;15461;41.652;9.378;2022-10-12T04:27:03;15.60;99.90
28177;DHT22;15461;41.652;9.378;2022-10-12T04:29:29;15.60;99.90
28177;DHT22;15461;41.652;9.378;2022-10-12T04:31:55;15.60;99.90
28177;DHT22;15461;41.652;9.378;2022-10-12T04:34:21;15.60;99.90
28177;DHT22;15461;41.652;9.378;2022-10-12T04:36:46;15.60;99.90
28177;DHT22;15461;41.652;9.378;2022-10-12T04:39:12;15.50;99.90
28177;DHT22;15461;41.652;9.378;2022-10-12T04:41:38;15.60;99.90
28177;DHT22;15461;41.652;9.378;2022-10-12T04:44:05;15.60;99.90
28177;DHT22;15461;41.652;9.378;2022-10-12T04:46:32;15.60;99.90
28177;DHT22;15461;41.652;9.378;2022-10-12T04:48:58;15.60;99.90
28177;DHT22;15461;41.652;9.378;2022-10-12T04:51:23;15.60;99.90
28177;DHT22;15461;41.652;9.378;2022-10-12T04:53:50;15.60;99.90
28177;DHT22;15461;41.652;9.378;2022-10-12T04:56:16;15.60;99.90
28177;DHT22;15461;41.652;9.378;2022-10-12T04:58:43;15.70;99.90
28177;DHT22;15461;41.652;9.378;2022-10-12T05:01:09;15.80;99.90
28177;DHT22;15461;41.652;9.378;2022-10-12T05:03:35;15.70;99.90
28177;DHT22;15461;41.652;9.378;2022-10-12T05:06:01;15.80;99.90
28177;DHT22;15461;41.652;9.378;2022-10-12T05:08:27;15.80;99.90
28177;DHT22;15461;41.652;9.378;2022-10-12T05:10:53;15.80;99.90
28177;DHT22;15461;41.652;9.378;2022-10-12T05:13:20;15.90;99.90
28177;DHT22;15461;41.652;9.378;2022-10-12T05:15:46;15.90;99.90
28177;DHT22;15461;41.652;9.378;2022-10-12T05:18:12;16.00;99.90
28177;DHT22;15461;41.652;9.378;2022-10-12T05:20:38;16.00;99.90
28177;DHT22;15461;41.652;9.378;2022-10-12T05:23:04;16.00;99.90
28177;DHT22;15461;41.652;9.378;2022-10-12T05:25:30;16.00;99.90
28177;DHT22;15461;41.652;9.378;2022-10-12T05:27:57;16.10;99.90
28177;DHT22;15461;41.652;9.378;2022-10-12T05:30:23;16.10;99.90
28177;DHT22;15461;41.652;9.378;2022-10-12T05:32:49;16.10;99.90
28177;DHT22;15461;41.652;9.378;2022-10-12T05:35:15;16.10;99.90
28177;DHT22;15461;41.652;9.378;2022-10-12T05:37:41;16.10;99.90
28177;DHT22;15461;41.652;9.378;2022-10-12T05:40:07;16.10;99.90
28177;DHT22;15461;41.652;9.378;2022-10-12T05:42:33;16.20;99.90
28177;DHT22;15461;41.652;9.378;2022-10-12T05:45:00;16.20;99.90
28177;DHT22;15461;41.652;9.378;2022-10-12T05:47:26;16.30;99.90
28177;DHT22;15461;41.652;9.378;2022-10-12T05:49:52;16.30;99.90
28177;DHT22;15461;41.652;9.378;2022-10-12T05:52:18;16.40;99.90
28177;DHT22;15461;41.652;9.378;2022-10-12T05:54:44;16.40;99.90
28177;DHT22;15461;41.652;9.378;2022-10-12T05:57:09;16.50;99.90
28177;DHT22;15461;41.652;9.378;2022-10-12T05:59:35;16.50;99.90
28177;DHT22;15461;41.652;9.378;2022-10-12T06:02:01;16.60;99.90
28177;DHT22;15461;41.652;9.378;2022-10-12T06:04:27;16.60;99.90
28177;DHT22;15461;41.652;9.378;2022-10-12T06:06:53;16.70;99.90
28177;DHT22;15461;41.652;9.378;2022-10-12T06:09:19;16.80;99.90
28177;DHT22;15461;41.652;9.378;2022-10-12T06:11:45;16.80;99.90
28177;DHT22;15461;41.652;9.378;2022-10-12T06:14:11;16.80;99.90
28177;DHT22;15461;41.652;9.378;2022-10-12T06:16:37;16.90;99.90
28177;DHT22;15461;41.652;9.378;2022-10-12T06:19:03;16.90;99.90
28177;DHT22;15461;41.652;9.378;2022-10-12T06:21:28;17.00;99.90
28177;DHT22;15461;41.652;9.378;2022-10-12T06:23:54;17.00;99.90
28177;DHT22;15461;41.652;9.378;2022-10-12T06:26:20;17.10;99.90
28177;DHT22;15461;41.652;9.378;2022-10-12T06:28:46;17.10;99.90
28177;DHT22;15461;41.652;9.378;2022-10-12T06:31:12;17.20;99.90
28177;DHT22;15461;41.652;9.378;2022-10-12T06:33:38;17.20;99.90
28177;DHT22;15461;41.652;9.378;2022-10-12T06:36:04;17.20;99.90
28177;DHT22;15461;41.652;9.378;2022-10-12T06:38:30;17.30;99.90
28177;DHT22;15461;41.652;9.378;2022-10-12T06:40:56;17.40;99.90
28177;DHT22;15461;41.652;9.378;2022-10-12T06:43:22;17.50;99.90
28177;DHT22;15461;41.652;9.378;2022-10-12T06:45:49;17.50;99.90
28177;DHT22;15461;41.652;9.378;2022-10-12T06:48:15;17.60;99.90
28177;DHT22;15461;41.652;9.378;2022-10-12T06:50:40;17.70;99.90
28177;DHT22;15461;41.652;9.378;2022-10-12T06:53:06;17.80;99.90
28177;DHT22;15461;41.652;9.378;2022-10-12T06:55:32;17.90;99.90
28177;DHT22;15461;41.652;9.378;2022-10-12T06:57:58;18.00;99.90
28177;DHT22;15461;41.652;9.378;2022-10-12T07:00:24;18.00;99.90
28177;DHT22;15461;41.652;9.378;2022-10-12T07:02:51;18.20;99.90
28177;DHT22;15461;41.652;9.378;2022-10-12T07:05:17;18.30;99.90
28177;DHT22;15461;41.652;9.378;2022-10-12T07:07:43;18.30;99.90
28177;DHT22;15461;41.652;9.378;2022-10-12T07:10:09;18.40;99.90
28177;DHT22;15461;41.652;9.378;2022-10-12T07:12:36;18.50;99.90
28177;DHT22;15461;41.652;9.378;2022-10-12T07:15:04;18.50;99.90
28177;DHT22;15461;41.652;9.378;2022-10-12T07:17:30;18.60;99.90
28177;DHT22;15461;41.652;9.378;2022-10-12T07:19:56;18.70;99.90
28177;DHT22;15461;41.652;9.378;2022-10-12T07:22:22;18.70;99.90
28177;DHT22;15461;41.652;9.378;2022-10-12T07:24:47;18.80;99.90
28177;DHT22;15461;41.652;9.378;2022-10-12T07:27:13;18.80;99.90
28177;DHT22;15461;41.652;9.378;2022-10-12T07:29:39;18.90;99.90
28177;DHT22;15461;41.652;9.378;2022-10-12T07:32:06;18.90;99.90
28177;DHT22;15461;41.652;9.378;2022-10-12T07:34:32;19.00;99.90
28177;DHT22;15461;41.652;9.378;2022-10-12T07:36:58;19.00;99.90
28177;DHT22;15461;41.652;9.378;2022-10-12T07:39:24;19.10;99.90
28177;DHT22;15461;41.652;9.378;2022-10-12T07:41:51;19.20;99.90
28177;DHT22;15461;41.652;9.378;2022-10-12T07:44:18;19.30;99.90
28177;DHT22;15461;41.652;9.378;2022-10-12T07:46:44;19.40;99.90
28177;DHT22;15461;41.652;9.378;2022-10-12T07:49:14;19.50;99.90
28177;DHT22;15461;41.652;9.378;2022-10-12T07:51:41;19.60;99.90
28177;DHT22;15461;41.652;9.378;2022-10-12T07:54:07;19.70;99.90
28177;DHT22;15461;41.652;9.378;2022-10-12T07:56:33;19.80;99.90
28177;DHT22;15461;41.652;9.378;2022-10-12T07:58:59;19.80;99.90
28177;DHT22;15461;41.652;9.378;2022-10-12T08:01:28;19.80;99.90
28177;DHT22;15461;41.652;9.378;2022-10-12T08:03:57;19.80;99.90
28177;DHT22;15461;41.652;9.378;2022-10-12T08:06:26;19.90;99.90
28177;DHT22;15461;41.652;9.378;2022-10-12T08:08:53;19.90;99.90
28177;DHT22;15461;41.652;9.378;2022-10-12T08:11:20;20.00;99.90
28177;DHT22;15461;41.652;9.378;2022-10-12T08:13:46;20.00;99.90
28177;DHT22;15461;41.652;9.378;2022-10-12T08:16:15;20.00;99.90
28177;DHT22;15461;41.652;9.378;2022-10-12T08:18:42;20.00;99.90
28177;DHT22;15461;41.652;9.378;2022-10-12T08:21:10;20.00;99.90
28177;DHT22;15461;41.652;9.378;2022-10-12T08:23:37;20.10;99.90
28177;DHT22;15461;41.652;9.378;2022-10-12T08:26:03;20.10;99.90
28177;DHT22;15461;41.652;9.378;2022-10-12T08:28:30;20.20;99.90
28177;DHT22;15461;41.652;9.378;2022-10-12T08:30:56;20.20;99.90
28177;DHT22;15461;41.652;9.378;2022-10-12T08:33:22;20.30;99.90
28177;DHT22;15461;41.652;9.378;2022-10-12T08:35:47;20.30;99.90
28177;DHT22;15461;41.652;9.378;2022-10-12T08:38:14;20.30;99.90
28177;DHT22;15461;41.652;9.378;2022-10-12T08:46:01;20.30;99.90
28177;DHT22;15461;41.652;9.378;2022-10-12T08:48:45;20.30;99.90
28177;DHT22;15461;41.652;9.378;2022-10-12T08:51:16;20.30;99.90
28177;DHT22;15461;41.652;9.378;2022-10-12T08:54:02;20.30;99.90
28177;DHT22;15461;41.652;9.378;2022-10-12T08:56:30;20.30;99.90
28177;DHT22;15461;41.652;9.378;2022-10-12T08:58:56;20.40;99.90
28177;DHT22;15461;41.652;9.378;2022-10-12T09:01:32;20.40;99.90
28177;DHT22;15461;41.652;9.378;2022-10-12T09:06:32;20.40;99.90
28177;DHT22;15461;41.652;9.378;2022-10-12T09:09:29;20.40;99.90
28177;DHT22;15461;41.652;9.378;2022-10-12T09:14:34;20.50;99.90
28177;DHT22;15461;41.652;9.378;2022-10-12T09:17:21;20.50;99.90
28177;DHT22;15461;41.652;9.378;2022-10-12T09:20:00;20.60;99.90
28177;DHT22;15461;41.652;9.378;2022-10-12T09:22:28;20.60;99.90
28177;DHT22;15461;41.652;9.378;2022-10-12T09:24:55;20.60;99.90
28177;DHT22;15461;41.652;9.378;2022-10-12T09:27:22;20.60;99.90
28177;DHT22;15461;41.652;9.378;2022-10-12T09:29:54;20.60;99.90
28177;DHT22;15461;41.652;9.378;2022-10-12T09:34:58;20.50;99.90
28177;DHT22;15461;41.652;9.378;2022-10-12T09:37:27;20.60;99.90
28177;DHT22;15461;41.652;9.378;2022-10-12T09:39:54;20.60;99.90
28177;DHT22;15461;41.652;9.378;2022-10-12T09:42:20;20.50;99.90
28177;DHT22;15461;41.652;9.378;2022-10-12T09:47:32;20.60;99.90
28177;DHT22;15461;41.652;9.378;2022-10-12T09:50:00;20.50;99.90
28177;DHT22;15461;41.652;9.378;2022-10-12T09:57:51;20.60;99.90
28177;DHT22;15461;41.652;9.378;2022-10-12T10:00:26;20.60;99.90
28177;DHT22;15461;41.652;9.378;2022-10-12T10:02:54;20.60;99.90
28177;DHT22;15461;41.652;9.378;2022-10-12T10:07:52;20.60;99.90
28177;DHT22;15461;41.652;9.378;2022-10-12T10:10:37;20.60;99.90
28177;DHT22;15461;41.652;9.378;2022-10-12T10:13:13;20.70;99.90
28177;DHT22;15461;41.652;9.378;2022-10-12T10:15:41;20.70;99.90
28177;DHT22;15461;41.652;9.378;2022-10-12T10:18:26;20.70;99.90
28177;DHT22;15461;41.652;9.378;2022-10-12T10:20:57;20.70;99.90
28177;DHT22;15461;41.652;9.378;2022-10-12T10:23:27;20.70;99.90
28177;DHT22;15461;41.652;9.378;2022-10-12T10:26:14;20.60;99.90
28177;DHT22;15461;41.652;9.378;2022-10-12T10:28:43;20.70;99.90
28177;DHT22;15461;41.652;9.378;2022-10-12T10:31:17;20.60;99.90
28177;DHT22;15461;41.652;9.378;2022-10-12T10:36:53;20.60;99.90
28177;DHT22;15461;41.652;9.378;2022-10-12T10:39:31;20.50;99.90
28177;DHT22;15461;41.652;9.378;2022-10-12T10:42:11;20.50;99.90
28177;DHT22;15461;41.652;9.378;2022-10-12T10:44:48;20.40;99.90
28177;DHT22;15461;41.652;9.378;2022-10-12T10:47:15;20.40;99.90
28177;DHT22;15461;41.652;9.378;2022-10-12T10:49:50;20.40;99.90
28177;DHT22;15461;41.652;9.378;2022-10-12T10:55:18;20.30;99.90
28177;DHT22;15461;41.652;9.378;2022-10-12T10:58:05;20.10;99.90
28177;DHT22;15461;41.652;9.378;2022-10-12T11:00:33;20.10;99.90
28177;DHT22;15461;41.652;9.378;2022-10-12T11:08:38;20.10;99.90
28177;DHT22;15461;41.652;9.378;2022-10-12T11:11:11;20.00;99.90
28177;DHT22;15461;41.652;9.378;2022-10-12T11:14:00;20.00;99.90
28177;DHT22;15461;41.652;9.378;2022-10-12T11:16:36;20.00;99.90
28177;DHT22;15461;41.652;9.378;2022-10-12T11:19:32;20.00;99.90
28177;DHT22;15461;41.652;9.378;2022-10-12T11:22:11;20.00;99.90
28177;DHT22;15461;41.652;9.378;2022-10-12T11:24:44;20.00;99.90
28177;DHT22;15461;41.652;9.378;2022-10-12T11:27:24;20.00;99.90
28177;DHT22;15461;41.652;9.378;2022-10-12T11:29:57;20.00;99.90
28177;DHT22;15461;41.652;9.378;2022-10-12T11:32:43;20.00;99.90
28177;DHT22;15461;41.652;9.378;2022-10-12T11:35:39;20.00;99.90
28177;DHT22;15461;41.652;9.378;2022-10-12T11:38:27;20.10;99.90
28177;DHT22;15461;41.652;9.378;2022-10-12T11:43:23;20.10;99.90
28177;DHT22;15461;41.652;9.378;2022-10-12T11:45:56;20.10;99.90
28177;DHT22;15461;41.652;9.378;2022-10-12T11:48:54;20.10;99.90
28177;DHT22;15461;41.652;9.378;2022-10-12T11:51:21;20.10;99.90
28177;DHT22;15461;41.652;9.378;2022-10-12T11:56:32;20.00;99.90
28177;DHT22;15461;41.652;9.378;2022-10-12T11:59:04;20.00;99.90
28177;DHT22;15461;41.652;9.378;2022-10-12T12:01:57;20.00;99.90
28177;DHT22;15461;41.652;9.378;2022-10-12T12:04:29;19.90;99.90
28177;DHT22;15461;41.652;9.378;2022-10-12T12:12:25;19.90;99.90
28177;DHT22;15461;41.652;9.378;2022-10-12T12:30:18;19.80;99.90
28177;DHT22;15461;41.652;9.378;2022-10-12T12:32:52;19.80;99.90
28177;DHT22;15461;41.652;9.378;2022-10-12T12:35:33;19.80;99.90
28177;DHT22;15461;41.652;9.378;2022-10-12T12:40:36;19.80;99.90
28177;DHT22;15461;41.652;9.378;2022-10-12T12:43:20;19.70;99.90
28177;DHT22;15461;41.652;9.378;2022-10-12T12:45:58;19.70;99.90
28177;DHT22;15461;41.652;9.378;2022-10-12T12:51:33;19.60;99.90
28177;DHT22;15461;41.652;9.378;2022-10-12T12:54:26;19.50;99.90
28177;DHT22;15461;41.652;9.378;2022-10-12T13:00:03;19.50;99.90
28177;DHT22;15461;41.652;9.378;2022-10-12T13:02:45;19.50;99.90
28177;DHT22;15461;41.652;9.378;2022-10-12T13:11:23;19.50;99.90
28177;DHT22;15461;41.652;9.378;2022-10-12T13:19:26;19.40;99.90
28177;DHT22;15461;41.652;9.378;2022-10-12T13:21:54;19.40;99.90
28177;DHT22;15461;41.652;9.378;2022-10-12T13:24:30;19.40;99.90
28177;DHT22;15461;41.652;9.378;2022-10-12T13:30:11;19.40;99.90
28177;DHT22;15461;41.652;9.378;2022-10-12T13:38:01;19.50;99.90
28177;DHT22;15461;41.652;9.378;2022-10-12T13:40:35;19.50;99.90
28177;DHT22;15461;41.652;9.378;2022-10-12T13:43:19;19.50;99.90
28177;DHT22;15461;41.652;9.378;2022-10-12T13:45:47;19.50;99.90
28177;DHT22;15461;41.652;9.378;2022-10-12T13:48:18;19.50;99.90
28177;DHT22;15461;41.652;9.378;2022-10-12T13:50:59;19.40;99.90
28177;DHT22;15461;41.652;9.378;2022-10-12T13:53:32;19.40;99.90
28177;DHT22;15461;41.652;9.378;2022-10-12T13:56:13;19.30;99.90
28177;DHT22;15461;41.652;9.378;2022-10-12T13:58:40;19.30;99.90
28177;DHT22;15461;41.652;9.378;2022-10-12T14:01:06;19.30;99.90
28177;DHT22;15461;41.652;9.378;2022-10-12T14:03:40;19.30;99.90
28177;DHT22;15461;41.652;9.378;2022-10-12T14:06:31;19.20;99.90
28177;DHT22;15461;41.652;9.378;2022-10-12T14:09:01;19.20;99.90
28177;DHT22;15461;41.652;9.378;2022-10-12T14:11:29;19.20;99.90
28177;DHT22;15461;41.652;9.378;2022-10-12T14:13:55;19.10;99.90
28177;DHT22;15461;41.652;9.378;2022-10-12T14:16:22;19.10;99.90
28177;DHT22;15461;41.652;9.378;2022-10-12T14:18:48;19.00;99.90
28177;DHT22;15461;41.652;9.378;2022-10-12T14:21:22;19.00;99.90
28177;DHT22;15461;41.652;9.378;2022-10-12T14:23:53;18.90;99.90
28177;DHT22;15461;41.652;9.378;2022-10-12T14:26:29;18.80;99.90
28177;DHT22;15461;41.652;9.378;2022-10-12T14:28:58;18.80;99.90
28177;DHT22;15461;41.652;9.378;2022-10-12T14:31:47;18.80;99.90
28177;DHT22;15461;41.652;9.378;2022-10-12T14:37:05;18.80;99.90
28177;DHT22;15461;41.652;9.378;2022-10-12T14:39:31;18.90;99.90
28177;DHT22;15461;41.652;9.378;2022-10-12T14:42:03;18.80;99.90
28177;DHT22;15461;41.652;9.378;2022-10-12T14:44:43;18.80;99.90
28177;DHT22;15461;41.652;9.378;2022-10-12T14:47:31;18.80;99.90
28177;DHT22;15461;41.652;9.378;2022-10-12T14:49:59;18.80;99.90
28177;DHT22;15461;41.652;9.378;2022-10-12T14:52:49;18.80;99.90
28177;DHT22;15461;41.652;9.378;2022-10-12T14:55:21;18.80;99.90
28177;DHT22;15461;41.652;9.378;2022-10-12T14:57:48;18.80;99.90
28177;DHT22;15461;41.652;9.378;2022-10-12T15:00:22;18.80;99.90
28177;DHT22;15461;41.652;9.378;2022-10-12T15:02:49;18.80;99.90
28177;DHT22;15461;41.652;9.378;2022-10-12T15:05:17;18.80;99.90
28177;DHT22;15461;41.652;9.378;2022-10-12T15:07:46;18.80;99.90
28177;DHT22;15461;41.652;9.378;2022-10-12T15:10:14;18.70;99.90
28177;DHT22;15461;41.652;9.378;2022-10-12T15:12:40;18.70;99.90
28177;DHT22;15461;41.652;9.378;2022-10-12T15:18:00;18.70;99.90
28177;DHT22;15461;41.652;9.378;2022-10-12T15:20:28;18.70;99.90
28177;DHT22;15461;41.652;9.378;2022-10-12T15:22:55;18.70;99.90
28177;DHT22;15461;41.652;9.378;2022-10-12T15:28:00;18.70;99.90
28177;DHT22;15461;41.652;9.378;2022-10-12T15:30:26;18.70;99.90
28177;DHT22;15461;41.652;9.378;2022-10-12T15:32:52;18.70;99.90
28177;DHT22;15461;41.652;9.378;2022-10-12T15:35:23;18.70;99.90
28177;DHT22;15461;41.652;9.378;2022-10-12T15:37:50;18.70;99.90
28177;DHT22;15461;41.652;9.378;2022-10-12T15:40:18;18.70;99.90
28177;DHT22;15461;41.652;9.378;2022-10-12T15:42:45;18.70;99.90
28177;DHT22;15461;41.652;9.378;2022-10-12T15:45:26;18.70;99.90
28177;DHT22;15461;41.652;9.378;2022-10-12T15:47:53;18.70;99.90
28177;DHT22;15461;41.652;9.378;2022-10-12T15:50:25;18.80;99.90
28177;DHT22;15461;41.652;9.378;2022-10-12T15:52:54;18.70;99.90
28177;DHT22;15461;41.652;9.378;2022-10-12T15:55:23;18.70;99.90
28177;DHT22;15461;41.652;9.378;2022-10-12T15:57:51;18.70;99.90
28177;DHT22;15461;41.652;9.378;2022-10-12T16:00:19;18.70;99.90
28177;DHT22;15461;41.652;9.378;2022-10-12T16:02:46;18.80;99.90
28177;DHT22;15461;41.652;9.378;2022-10-12T16:05:19;18.80;99.90
28177;DHT22;15461;41.652;9.378;2022-10-12T16:07:46;18.80;99.90
28177;DHT22;15461;41.652;9.378;2022-10-12T16:10:13;18.80;99.90
28177;DHT22;15461;41.652;9.378;2022-10-12T16:12:45;18.70;99.90
28177;DHT22;15461;41.652;9.378;2022-10-12T16:15:18;18.70;99.90
28177;DHT22;15461;41.652;9.378;2022-10-12T16:17:46;18.70;99.90
28177;DHT22;15461;41.652;9.378;2022-10-12T16:20:12;18.70;99.90
28177;DHT22;15461;41.652;9.378;2022-10-12T16:22:38;18.70;99.90
28177;DHT22;15461;41.652;9.378;2022-10-12T16:25:07;18.70;99.90
28177;DHT22;15461;41.652;9.378;2022-10-12T16:27:33;18.70;99.90
28177;DHT22;15461;41.652;9.378;2022-10-12T16:29:59;18.70;99.90
28177;DHT22;15461;41.652;9.378;2022-10-12T16:32:26;18.70;99.90
28177;DHT22;15461;41.652;9.378;2022-10-12T16:34:52;18.70;99.90
28177;DHT22;15461;41.652;9.378;2022-10-12T16:37:21;18.70;99.90
28177;DHT22;15461;41.652;9.378;2022-10-12T16:39:47;18.60;99.90
28177;DHT22;15461;41.652;9.378;2022-10-12T16:42:13;18.60;99.90
28177;DHT22;15461;41.652;9.378;2022-10-12T16:44:38;18.60;99.90
28177;DHT22;15461;41.652;9.378;2022-10-12T16:47:04;18.60;99.90
28177;DHT22;15461;41.652;9.378;2022-10-12T16:49:31;18.60;99.90
28177;DHT22;15461;41.652;9.378;2022-10-12T16:51:57;18.60;99.90
28177;DHT22;15461;41.652;9.378;2022-10-12T16:54:23;18.50;99.90
28177;DHT22;15461;41.652;9.378;2022-10-12T16:56:50;18.50;99.90
28177;DHT22;15461;41.652;9.378;2022-10-12T16:59:16;18.50;99.90
28177;DHT22;15461;41.652;9.378;2022-10-12T17:01:42;18.50;99.90
28177;DHT22;15461;41.652;9.378;2022-10-12T17:04:11;18.40;99.90
28177;DHT22;15461;41.652;9.378;2022-10-12T17:06:37;18.40;99.90
28177;DHT22;15461;41.652;9.378;2022-10-12T17:09:04;18.40;99.90
28177;DHT22;15461;41.652;9.378;2022-10-12T17:11:30;18.40;99.90
28177;DHT22;15461;41.652;9.378;2022-10-12T17:13:55;18.40;99.90
28177;DHT22;15461;41.652;9.378;2022-10-12T17:16:22;18.40;99.90
28177;DHT22;15461;41.652;9.378;2022-10-12T17:19:07;18.40;99.90
28177;DHT22;15461;41.652;9.378;2022-10-12T17:21:33;18.40;99.90
28177;DHT22;15461;41.652;9.378;2022-10-12T17:24:01;18.40;99.90
28177;DHT22;15461;41.652;9.378;2022-10-12T17:26:27;18.30;99.90
28177;DHT22;15461;41.652;9.378;2022-10-12T17:28:53;18.30;99.90
28177;DHT22;15461;41.652;9.378;2022-10-12T17:31:20;18.30;99.90
28177;DHT22;15461;41.652;9.378;2022-10-12T17:33:45;18.30;99.90
28177;DHT22;15461;41.652;9.378;2022-10-12T17:36:12;18.40;99.90
28177;DHT22;15461;41.652;9.378;2022-10-12T17:38:42;18.30;99.90
28177;DHT22;15461;41.652;9.378;2022-10-12T17:41:08;18.30;99.90
28177;DHT22;15461;41.652;9.378;2022-10-12T17:43:34;18.40;99.90